Time;durP1;ratioP1;P1;durP2;ratioP2;P2;SDS_P1;SDS_P2;PMS_P1;PMS_P2;Temp;Humidity;BMP_temperature;BMP_pressure;BME280_temperature;BME280_humidity;BME280_pressure;Samples;Min_cycle;Max_cycle;Signal;HPM_P1;HPM_P2
2023/03/16 00:01:15;;;;;;;1999.90;999.90;;;-1.00;99.90;;;;;;5033851;28;20026;-74
2023/03/16 00:03:41;;;;;;;1999.90;999.90;;;-1.00;99.90;;;;;;5035104;28;20062;-74
2023/03/16 00:06:06;;;;;;;1999.90;999.90;;;-1.00;99.90;;;;;;5032159;28;20100;-74
2023/03/16 00:08:34;;;;;;;1999.90;999.90;;;-0.90;99.90;;;;;;5035131;28;20085;-74
2023/03/16 00:11:01;;;;;;;1999.90;999.90;;;-0.80;99.90;;;;;;5035278;28;20577;-74
2023/03/16 00:13:27;;;;;;;1999.90;999.90;;;-0.80;99.90;;;;;;5035127;28;20056;-74
2023/03/16 00:15:55;;;;;;;1999.90;999.90;;;-0.80;99.90;;;;;;5034559;28;20036;-74
2023/03/16 00:18:22;;;;;;;1999.90;999.90;;;-0.90;99.90;;;;;;5034680;28;20038;-74
2023/03/16 00:20:51;;;;;;;1999.90;999.90;;;-0.70;99.90;;;;;;5033491;28;20584;-74
2023/03/16 00:23:18;;;;;;;1999.90;999.90;;;-0.70;99.90;;;;;;5034879;28;20033;-74
2023/03/16 00:25:43;;;;;;;1999.90;999.90;;;-0.70;99.90;;;;;;5033039;28;20124;-75
2023/03/16 00:28:12;;;;;;;1999.90;999.90;;;-0.80;99.90;;;;;;5034723;28;20120;-74
2023/03/16 00:30:38;;;;;;;1999.90;999.90;;;-0.80;99.90;;;;;;5034591;28;20034;-74
2023/03/16 00:33:03;;;;;;;1999.90;999.90;;;-0.70;99.90;;;;;;5034667;28;20491;-74
2023/03/16 00:35:29;;;;;;;1999.90;999.90;;;-0.80;99.90;;;;;;5034360;28;20037;-74
2023/03/16 00:37:56;;;;;;;1999.90;999.90;;;-0.90;99.90;;;;;;5034827;28;20034;-74
2023/03/16 00:40:22;;;;;;;1999.90;999.90;;;-0.90;99.90;;;;;;5032962;28;20034;-74
2023/03/16 00:42:47;;;;;;;1999.90;999.90;;;-1.10;99.90;;;;;;5033047;28;20388;-74
2023/03/16 00:45:13;;;;;;;1999.90;999.90;;;-1.10;99.90;;;;;;5033970;28;20034;-75
2023/03/16 00:47:38;;;;;;;1999.90;999.90;;;-1.20;99.90;;;;;;5034561;28;20432;-74
2023/03/16 00:50:04;;;;;;;1999.90;999.90;;;-1.20;99.90;;;;;;5034437;28;20042;-74
2023/03/16 00:52:30;;;;;;;1999.90;999.90;;;-1.10;99.90;;;;;;5033207;28;20034;-74
2023/03/16 00:54:56;;;;;;;1999.90;999.90;;;-1.10;99.90;;;;;;5034238;28;20444;-74
2023/03/16 00:57:24;;;;;;;1999.90;999.90;;;-1.00;99.90;;;;;;5034413;28;20062;-74
2023/03/16 00:59:49;;;;;;;1999.90;999.90;;;-1.10;99.90;;;;;;5034298;28;20030;-74
2023/03/16 01:02:18;;;;;;;1999.90;999.90;;;-1.20;99.90;;;;;;5034590;28;20030;-74
2023/03/16 01:04:43;;;;;;;1999.90;999.90;;;-1.30;99.90;;;;;;5033895;28;20108;-74
2023/03/16 01:07:12;;;;;;;1999.90;999.90;;;-1.30;99.90;;;;;;5034076;28;20034;-74
2023/03/16 01:09:39;;;;;;;1999.90;999.90;;;-1.20;99.90;;;;;;5033871;28;20042;-74
2023/03/16 01:12:07;;;;;;;1999.90;999.90;;;-1.20;99.90;;;;;;5034168;28;20451;-74
2023/03/16 01:14:34;;;;;;;1999.90;999.90;;;-1.20;99.90;;;;;;5032710;28;20034;-74
2023/03/16 01:17:00;;;;;;;1999.90;999.90;;;-1.20;99.90;;;;;;5034112;28;20038;-74
2023/03/16 01:19:27;;;;;;;1999.90;999.90;;;-1.20;99.90;;;;;;5037528;28;20034;-74
2023/03/16 01:21:53;;;;;;;1999.90;999.90;;;-1.20;99.90;;;;;;5037866;28;20436;-74
2023/03/16 01:24:18;;;;;;;1999.90;999.90;;;-1.10;99.90;;;;;;5037298;28;20038;-74
2023/03/16 01:26:44;;;;;;;1999.90;999.90;;;-1.10;99.90;;;;;;5037179;28;20066;-74
2023/03/16 01:29:11;;;;;;;1999.90;999.90;;;-1.10;99.90;;;;;;5037501;28;20034;-74
2023/03/16 01:31:37;;;;;;;1999.90;999.90;;;-1.20;99.90;;;;;;5037441;28;20530;-74
2023/03/16 01:34:03;;;;;;;1999.90;999.90;;;-1.10;99.90;;;;;;5037275;28;20036;-74
2023/03/16 01:36:30;;;;;;;1999.90;999.90;;;-1.20;99.90;;;;;;5036918;28;20037;-74
2023/03/16 01:38:57;;;;;;;1999.90;999.90;;;-1.20;99.90;;;;;;5035941;28;20504;-74
2023/03/16 01:41:22;;;;;;;1999.90;999.90;;;-1.20;99.90;;;;;;5037153;28;20518;-74
2023/03/16 01:43:50;;;;;;;1999.90;999.90;;;-1.10;99.90;;;;;;5037245;28;20049;-74
2023/03/16 01:46:22;;;;;;;1999.90;999.90;;;-1.10;99.90;;;;;;5037124;28;20037;-74
2023/03/16 01:49:00;;;;;;;1999.90;999.90;;;-1.00;99.90;;;;;;5037129;28;20492;-74
2023/03/16 01:51:52;;;;;;;1999.90;999.90;;;-1.00;99.90;;;;;;5037528;28;20559;-74
2023/03/16 01:54:28;;;;;;;1999.90;999.90;;;-1.10;99.90;;;;;;5036961;28;20034;-74
2023/03/16 01:57:11;;;;;;;1999.90;999.90;;;-1.10;99.90;;;;;;5036688;28;20452;-74
2023/03/16 01:59:48;;;;;;;1999.90;999.90;;;-1.20;99.90;;;;;;5037327;28;20069;-75
2023/03/16 02:02:18;;;;;;;1999.90;999.90;;;-1.20;99.90;;;;;;5037356;28;20057;-75
2023/03/16 02:05:09;;;;;;;1999.90;999.90;;;-1.20;99.90;;;;;;5036810;28;20784;-74
2023/03/16 02:07:41;;;;;;;1999.90;999.90;;;-1.10;99.90;;;;;;5036956;28;20089;-74
2023/03/16 02:10:09;;;;;;;1999.90;999.90;;;-1.10;99.90;;;;;;5036815;28;20077;-74
2023/03/16 02:12:35;;;;;;;1999.90;999.90;;;-1.10;99.90;;;;;;5035582;28;20762;-74
2023/03/16 02:15:00;;;;;;;1999.90;999.90;;;-1.20;99.90;;;;;;5036782;28;20041;-74
2023/03/16 02:17:28;;;;;;;1999.90;999.90;;;-1.20;99.90;;;;;;5036148;28;20060;-74
2023/03/16 02:20:17;;;;;;;1999.90;999.90;;;-1.20;99.90;;;;;;5036843;28;20045;-75
2023/03/16 02:22:47;;;;;;;1999.90;999.90;;;-1.30;99.90;;;;;;5036917;28;20542;-75
2023/03/16 02:25:16;;;;;;;1999.90;999.90;;;-1.30;99.90;;;;;;5036226;28;20038;-74
2023/03/16 02:27:41;;;;;;;1999.90;999.90;;;-1.30;99.90;;;;;;5036532;28;20077;-74
2023/03/16 02:30:14;;;;;;;1999.90;999.90;;;-1.30;99.90;;;;;;5035380;28;20132;-74
2023/03/16 02:32:41;;;;;;;1999.90;999.90;;;-1.20;99.90;;;;;;5035084;28;20034;-74
2023/03/16 02:35:07;;;;;;;1999.90;999.90;;;-1.30;99.90;;;;;;5036180;28;20061;-74
2023/03/16 02:37:33;;;;;;;1999.90;999.90;;;-1.30;99.90;;;;;;5035944;28;20044;-74
2023/03/16 02:40:15;;;;;;;1999.90;999.90;;;-1.30;99.90;;;;;;5036395;28;20037;-74
2023/03/16 02:42:41;;;;;;;1999.90;999.90;;;-1.20;99.90;;;;;;5036647;28;20032;-74
2023/03/16 02:45:08;;;;;;;1999.90;999.90;;;-1.30;99.90;;;;;;5035959;28;20500;-74
2023/03/16 02:47:38;;;;;;;1999.90;999.90;;;-1.20;99.90;;;;;;5036310;28;20034;-74
2023/03/16 02:50:05;;;;;;;1999.90;999.90;;;-1.20;99.90;;;;;;5036127;28;20101;-74
2023/03/16 02:52:35;;;;;;;1999.90;999.90;;;-1.20;99.90;;;;;;5036302;28;20084;-74
2023/03/16 02:55:01;;;;;;;1999.90;999.90;;;-1.20;99.90;;;;;;5035971;28;20034;-74
2023/03/16 02:57:27;;;;;;;1999.90;999.90;;;-1.30;99.90;;;;;;5036235;28;20567;-74
2023/03/16 02:59:53;;;;;;;1999.90;999.90;;;-1.30;99.90;;;;;;5034852;28;20044;-74
2023/03/16 03:02:18;;;;;;;1999.90;999.90;;;-1.30;99.90;;;;;;5036158;28;20026;-74
2023/03/16 03:04:45;;;;;;;1999.90;999.90;;;-1.30;99.90;;;;;;5035556;28;20049;-74
2023/03/16 03:07:13;;;;;;;1999.90;999.90;;;-1.50;99.90;;;;;;5035868;28;20034;-74
2023/03/16 03:09:41;;;;;;;1999.90;999.90;;;-1.50;99.90;;;;;;5036052;28;20030;-74
2023/03/16 03:12:07;;;;;;;1999.90;999.90;;;-1.50;99.90;;;;;;5034704;28;20030;-74
2023/03/16 03:14:36;;;;;;;1999.90;999.90;;;-1.50;99.90;;;;;;5035961;28;20034;-74
2023/03/16 03:17:03;;;;;;;1999.90;999.90;;;-1.40;99.90;;;;;;5035496;28;20065;-74
2023/03/16 03:19:28;;;;;;;1999.90;999.90;;;-1.40;99.90;;;;;;5035797;28;20038;-74
2023/03/16 03:21:55;;;;;;;1999.90;999.90;;;-1.40;99.90;;;;;;5034517;28;20396;-74
2023/03/16 03:24:22;;;;;;;1999.90;999.90;;;-1.60;99.90;;;;;;5035648;28;20030;-74
2023/03/16 03:26:47;;;;;;;1999.90;999.90;;;-1.60;99.90;;;;;;5035395;28;20041;-74
2023/03/16 03:29:13;;;;;;;1999.90;999.90;;;-1.70;99.90;;;;;;5035544;28;20041;-76
2023/03/16 03:31:38;;;;;;;1999.90;999.90;;;-1.80;99.90;;;;;;5035103;28;20084;-74
2023/03/16 03:34:05;;;;;;;1999.90;999.90;;;-1.70;99.90;;;;;;5035061;28;20038;-74
2023/03/16 03:36:31;;;;;;;1999.90;999.90;;;-1.70;99.90;;;;;;5035682;28;20420;-74
2023/03/16 03:38:57;;;;;;;1999.90;999.90;;;-1.80;99.90;;;;;;5033922;28;20447;-74
2023/03/16 03:41:22;;;;;;;1999.90;999.90;;;-1.80;99.90;;;;;;5035274;28;20034;-74
2023/03/16 03:43:48;;;;;;;1999.90;999.90;;;-1.90;99.90;;;;;;5035574;28;20065;-74
2023/03/16 03:46:14;;;;;;;1999.90;999.90;;;-2.00;99.90;;;;;;5035010;28;20042;-74
2023/03/16 03:48:39;;;;;;;1999.90;999.90;;;-2.10;99.90;;;;;;5035197;28;20085;-74
2023/03/16 03:51:05;;;;;;;1999.90;999.90;;;-2.10;99.90;;;;;;5035402;28;20034;-74
2023/03/16 03:53:31;;;;;;;1999.90;999.90;;;-1.90;99.90;;;;;;5035129;28;20484;-74
2023/03/16 03:55:56;;;;;;;1999.90;999.90;;;-1.90;99.90;;;;;;5035123;28;20544;-74
2023/03/16 03:58:22;;;;;;;1999.90;999.90;;;-1.80;99.90;;;;;;5035426;28;20033;-74
2023/03/16 04:00:48;;;;;;;1999.90;999.90;;;-1.70;99.90;;;;;;5035261;28;20088;-74
2023/03/16 04:03:13;;;;;;;1999.90;999.90;;;-1.70;99.90;;;;;;5035069;28;20052;-74
2023/03/16 04:05:39;;;;;;;1999.90;999.90;;;-1.60;99.90;;;;;;5034639;28;20038;-74
2023/03/16 04:08:04;;;;;;;1999.90;999.90;;;-1.70;99.90;;;;;;5035413;28;20360;-74
2023/03/16 04:10:30;;;;;;;1999.90;999.90;;;-1.70;99.90;;;;;;5035250;28;20061;-74
2023/03/16 04:12:57;;;;;;;1999.90;999.90;;;-1.70;99.90;;;;;;5035371;28;20038;-74
2023/03/16 04:15:23;;;;;;;1999.90;999.90;;;-1.80;99.90;;;;;;5034701;28;20038;-75
2023/03/16 04:17:49;;;;;;;1999.90;999.90;;;-1.80;99.90;;;;;;5033903;28;20050;-74
2023/03/16 04:20:18;;;;;;;1999.90;999.90;;;-1.80;99.90;;;;;;5034928;28;20037;-74
2023/03/16 04:22:45;;;;;;;1999.90;999.90;;;-1.70;99.90;;;;;;5033894;28;20080;-74
2023/03/16 04:25:11;;;;;;;1999.90;999.90;;;-1.90;99.90;;;;;;5034554;28;20037;-74
2023/03/16 04:27:37;;;;;;;1999.90;999.90;;;-1.80;99.90;;;;;;5034595;28;20475;-74
2023/03/16 04:30:11;;;;;;;1999.90;999.90;;;-2.00;99.90;;;;;;5032838;28;20040;-74
2023/03/16 04:32:37;;;;;;;1999.90;999.90;;;-1.90;99.90;;;;;;5034718;28;20076;-74
2023/03/16 04:35:03;;;;;;;1999.90;999.90;;;-1.80;99.90;;;;;;5034505;28;20042;-74
2023/03/16 04:37:29;;;;;;;1999.90;999.90;;;-1.90;99.90;;;;;;5034523;28;20096;-74
2023/03/16 04:39:55;;;;;;;1999.90;999.90;;;-1.90;99.90;;;;;;5034626;28;20494;-74
2023/03/16 04:42:20;;;;;;;1999.90;999.90;;;-1.90;99.90;;;;;;5034761;28;20081;-74
2023/03/16 04:44:46;;;;;;;1999.90;999.90;;;-2.10;99.90;;;;;;5034566;28;20081;-74
2023/03/16 04:47:14;;;;;;;1999.90;999.90;;;-2.00;99.90;;;;;;5034620;28;20037;-74
2023/03/16 04:49:39;;;;;;;1999.90;999.90;;;-2.00;99.90;;;;;;5033147;28;20076;-74
2023/03/16 04:52:05;;;;;;;1999.90;999.90;;;-2.10;99.90;;;;;;5032499;28;20061;-74
2023/03/16 04:54:32;;;;;;;1999.90;999.90;;;-2.10;99.90;;;;;;5033900;28;20041;-74
2023/03/16 04:56:59;;;;;;;1999.90;999.90;;;-2.00;99.90;;;;;;5034307;28;20056;-74
2023/03/16 04:59:25;;;;;;;1999.90;999.90;;;-2.00;99.90;;;;;;5034332;28;20034;-74
2023/03/16 05:01:51;;;;;;;1999.90;999.90;;;-2.00;99.90;;;;;;5034593;28;20085;-74
2023/03/16 05:04:16;;;;;;;1999.90;999.90;;;-1.90;99.90;;;;;;5034059;28;20092;-74
2023/03/16 05:06:42;;;;;;;1999.90;999.90;;;-2.00;99.90;;;;;;5033983;28;20120;-74
2023/03/16 05:09:08;;;;;;;1999.90;999.90;;;-2.00;99.90;;;;;;5032701;28;20451;-74
2023/03/16 05:11:35;;;;;;;1999.90;999.90;;;-1.90;99.90;;;;;;5034329;28;20034;-74
2023/03/16 05:14:00;;;;;;;1999.90;999.90;;;-2.00;99.90;;;;;;5033851;28;20042;-74
2023/03/16 05:16:27;;;;;;;1999.90;999.90;;;-2.00;99.90;;;;;;5034224;28;20373;-74
2023/03/16 05:18:56;;;;;;;1999.90;999.90;;;-2.10;99.90;;;;;;5034320;28;20492;-74
2023/03/16 05:21:21;;;;;;;1999.90;999.90;;;-1.90;99.90;;;;;;5034149;28;20034;-74
2023/03/16 05:23:47;;;;;;;1999.90;999.90;;;-1.90;99.90;;;;;;5032187;28;20038;-74
2023/03/16 05:26:12;;;;;;;1999.90;999.90;;;-1.90;99.90;;;;;;5033428;28;20030;-74
2023/03/16 05:28:38;;;;;;;1999.90;999.90;;;-2.00;99.90;;;;;;5032428;28;20121;-74
2023/03/16 05:31:05;;;;;;;1999.90;999.90;;;-2.10;99.90;;;;;;5033946;28;20127;-74
2023/03/16 05:33:30;;;;;;;1999.90;999.90;;;-2.00;99.90;;;;;;5033906;28;20042;-75
2023/03/16 05:36:01;;;;;;;1999.90;999.90;;;-2.00;99.90;;;;;;5033688;28;20069;-74
2023/03/16 05:38:27;;;;;;;1999.90;999.90;;;-2.00;99.90;;;;;;5034386;28;20034;-75
2023/03/16 05:40:53;;;;;;;1999.90;999.90;;;-1.90;99.90;;;;;;5040215;28;20118;-75
2023/03/16 05:43:20;;;;;;;1999.90;999.90;;;-1.80;99.90;;;;;;5020695;28;20033;-74
2023/03/16 05:45:46;;;;;;;1999.90;999.90;;;-1.80;99.90;;;;;;5033458;28;20042;-75
2023/03/16 05:48:13;;;;;;;1999.90;999.90;;;-1.80;99.90;;;;;;5034410;28;20819;-75
2023/03/16 05:50:39;;;;;;;1999.90;999.90;;;-1.70;99.90;;;;;;5034627;28;20081;-75
2023/03/16 05:53:05;;;;;;;1999.90;999.90;;;-1.70;99.90;;;;;;5034076;28;20038;-75
2023/03/16 05:55:30;;;;;;;1999.90;999.90;;;-1.70;99.90;;;;;;5031772;28;20096;-76
2023/03/16 05:57:56;;;;;;;1999.90;999.90;;;-1.60;99.90;;;;;;5033744;28;20030;-79
2023/03/16 06:00:22;;;;;;;1999.90;999.90;;;-1.60;99.90;;;;;;5033961;28;20042;-75
2023/03/16 06:02:50;;;;;;;1999.90;999.90;;;-1.50;99.90;;;;;;5032295;28;20034;-75
2023/03/16 06:05:17;;;;;;;1999.90;999.90;;;-1.50;99.90;;;;;;5034936;28;20042;-76
2023/03/16 06:07:43;;;;;;;1999.90;999.90;;;-1.40;99.90;;;;;;5037430;28;20030;-78
2023/03/16 06:10:12;;;;;;;1999.90;999.90;;;-1.30;99.90;;;;;;5037892;28;20038;-78
2023/03/16 06:12:38;;;;;;;1999.90;999.90;;;-1.30;99.90;;;;;;5037327;28;20809;-75
2023/03/16 06:15:08;;;;;;;1999.90;999.90;;;-1.20;99.90;;;;;;5036818;28;20038;-75
2023/03/16 06:17:37;;;;;;;1999.90;999.90;;;-1.30;99.90;;;;;;5036995;28;20030;-75
2023/03/16 06:20:10;;;;;;;1999.90;999.90;;;-1.20;99.90;;;;;;5036818;28;20033;-77
2023/03/16 06:22:40;;;;;;;1999.90;999.90;;;-1.10;99.90;;;;;;5035730;28;20182;-77
2023/03/16 06:25:07;;;;;;;1999.90;999.90;;;-1.00;99.90;;;;;;5036555;28;20053;-75
2023/03/16 06:27:33;;;;;;;1999.90;999.90;;;-0.90;99.90;;;;;;5036686;28;20038;-75
2023/03/16 06:29:58;;;;;;;1999.90;999.90;;;-0.80;99.90;;;;;;5038156;28;20080;-75
2023/03/16 06:32:24;;;;;;;1999.90;999.90;;;-0.70;99.90;;;;;;5035133;28;20491;-76
2023/03/16 06:34:50;;;;;;;1999.90;999.90;;;-0.70;99.90;;;;;;5036287;28;20061;-76
2023/03/16 06:37:15;;;;;;;1999.90;999.90;;;-0.60;99.90;;;;;;5037183;28;20037;-75
2023/03/16 06:39:41;;;;;;;1999.90;999.90;;;-0.60;99.90;;;;;;5036462;28;20034;-75
2023/03/16 06:42:06;;;;;;;1999.90;999.90;;;-0.60;99.90;;;;;;5036365;28;20068;-76
2023/03/16 06:44:32;;;;;;;1999.90;999.90;;;-0.50;99.90;;;;;;5036786;28;20037;-75
2023/03/16 06:46:58;;;;;;;1999.90;999.90;;;-0.40;99.90;;;;;;5035157;28;20463;-76
2023/03/16 06:49:23;;;;;;;1999.90;999.90;;;-0.40;99.90;;;;;;5034909;28;20042;-76
2023/03/16 06:51:49;;;;;;;1999.90;999.90;;;-0.30;99.90;;;;;;5037154;28;20069;-76
2023/03/16 06:54:15;;;;;;;1999.90;999.90;;;-0.20;99.90;;;;;;5036363;28;20030;-76
2023/03/16 06:56:40;;;;;;;1999.90;999.90;;;-0.10;99.90;;;;;;5037309;28;20038;-77
2023/03/16 06:59:06;;;;;;;1999.90;999.90;;;0.00;99.90;;;;;;5035151;28;20045;-76
2023/03/16 07:01:32;;;;;;;1999.90;999.90;;;0.00;99.90;;;;;;5036492;28;20034;-76
2023/03/16 07:03:57;;;;;;;1999.90;999.90;;;0.10;99.90;;;;;;5036628;28;20038;-76
2023/03/16 07:06:23;;;;;;;1999.90;999.90;;;0.20;99.90;;;;;;5034574;28;20041;-76
2023/03/16 07:08:48;;;;;;;1999.90;999.90;;;0.30;99.90;;;;;;5035856;28;20034;-76
2023/03/16 07:11:14;;;;;;;1999.90;999.90;;;0.40;99.90;;;;;;5036197;28;20062;-76
2023/03/16 07:13:40;;;;;;;1999.90;999.90;;;0.50;99.90;;;;;;5036076;28;20116;-76
2023/03/16 07:16:06;;;;;;;1999.90;999.90;;;0.50;99.90;;;;;;5033599;28;20033;-76
2023/03/16 07:18:32;;;;;;;1999.90;999.90;;;0.60;99.90;;;;;;5035680;28;20176;-77
2023/03/16 07:20:58;;;;;;;1999.90;999.90;;;0.60;99.90;;;;;;5035929;28;20109;-76
2023/03/16 07:23:24;;;;;;;1999.90;999.90;;;0.70;99.90;;;;;;5036063;28;20026;-76
2023/03/16 07:25:50;;;;;;;1999.90;999.90;;;0.80;99.90;;;;;;5033978;28;20034;-76
2023/03/16 07:28:17;;;;;;;1999.90;999.90;;;0.90;99.90;;;;;;5035955;28;20022;-77
2023/03/16 07:30:44;;;;;;;1999.90;999.90;;;1.00;99.90;;;;;;5033463;28;20056;-76
2023/03/16 07:33:10;;;;;;;1999.90;999.90;;;1.10;99.90;;;;;;5035776;28;20030;-76
2023/03/16 07:35:36;;;;;;;1999.90;999.90;;;1.20;99.90;;;;;;5035693;28;20033;-76
2023/03/16 07:38:02;;;;;;;1999.90;999.90;;;1.30;99.90;;;;;;5017655;28;20481;-77
2023/03/16 07:40:27;;;;;;;1999.90;999.90;;;1.30;99.90;;;;;;5015938;28;20081;-77
2023/03/16 07:42:53;;;;;;;1999.90;999.90;;;1.40;99.90;;;;;;5014302;28;20144;-76
2023/03/16 07:45:19;;;;;;;1999.90;999.90;;;1.40;99.90;;;;;;5013853;28;20030;-77
2023/03/16 07:47:44;;;;;;;1999.90;999.90;;;1.50;99.90;;;;;;5014368;28;20030;-77
2023/03/16 07:50:12;;;;;;;1999.90;999.90;;;1.60;99.90;;;;;;5015898;28;20042;-77
2023/03/16 07:52:39;;;;;;;1999.90;999.90;;;1.70;99.90;;;;;;5015813;28;20400;-76
2023/03/16 07:55:05;;;;;;;1999.90;999.90;;;1.80;99.90;;;;;;5015572;28;20113;-77
2023/03/16 07:57:30;;;;;;;1999.90;999.90;;;1.90;99.90;;;;;;5015582;28;20026;-77
2023/03/16 07:59:57;;;;;;;1999.90;999.90;;;2.00;99.90;;;;;;5014049;28;20515;-76
2023/03/16 08:02:22;;;;;;;1999.90;999.90;;;2.10;99.90;;;;;;5013982;28;20030;-77
2023/03/16 08:04:48;;;;;;;1999.90;999.90;;;2.20;99.90;;;;;;5015693;28;20534;-77
2023/03/16 08:07:15;;;;;;;1999.90;999.90;;;2.30;99.90;;;;;;5015407;28;20089;-77
2023/03/16 08:09:40;;;;;;;1999.90;999.90;;;2.40;99.90;;;;;;5013898;28;20045;-77
2023/03/16 08:12:08;;;;;;;1999.90;999.90;;;2.50;99.90;;;;;;5015350;28;20041;-77
2023/03/16 08:14:34;;;;;;;1999.90;999.90;;;2.60;99.90;;;;;;5014618;28;20129;-77
2023/03/16 08:17:01;;;;;;;1999.90;999.90;;;2.60;99.90;;;;;;5013706;28;20456;-76
2023/03/16 08:19:27;;;;;;;1999.90;999.90;;;2.70;99.90;;;;;;5015363;28;20125;-76
2023/03/16 08:21:52;;;;;;;1999.90;999.90;;;2.70;99.90;;;;;;5014966;28;20065;-76
2023/03/16 08:24:18;;;;;;;1999.90;999.90;;;2.80;99.90;;;;;;5015011;28;20077;-77
2023/03/16 08:26:44;;;;;;;1999.90;999.90;;;2.90;99.90;;;;;;5014296;28;20030;-77
2023/03/16 08:29:10;;;;;;;1999.90;999.90;;;3.00;99.90;;;;;;5014637;28;20038;-76
2023/03/16 08:31:35;;;;;;;1999.90;999.90;;;3.10;99.90;;;;;;5015173;28;20106;-77
2023/03/16 08:34:01;;;;;;;1999.90;999.90;;;3.10;99.90;;;;;;5013250;28;20096;-76
2023/03/16 08:36:27;;;;;;;1999.90;999.90;;;3.30;99.90;;;;;;5037826;28;20079;-77
2023/03/16 08:38:57;;;;;;;1999.90;999.90;;;3.40;99.90;;;;;;5053327;28;20037;-80
2023/03/16 08:41:22;;;;;;;1999.90;999.90;;;3.50;99.90;;;;;;5050969;28;20068;-77
2023/03/16 08:43:48;;;;;;;1999.90;999.90;;;3.60;99.90;;;;;;5034806;28;20112;-77
2023/03/16 08:46:15;;;;;;;1999.90;999.90;;;3.70;99.90;;;;;;5032479;28;20038;-77
2023/03/16 08:48:41;;;;;;;1999.90;999.90;;;3.80;99.90;;;;;;5034419;28;20825;-77
2023/03/16 08:51:09;;;;;;;1999.90;999.90;;;4.00;99.90;;;;;;5032217;28;20046;-77
2023/03/16 08:53:35;;;;;;;1999.90;999.90;;;4.20;99.90;;;;;;5034334;28;20526;-77
2023/03/16 08:56:10;;;;;;;1999.90;999.90;;;4.40;99.90;;;;;;5034119;28;20033;-77
2023/03/16 08:58:36;;;;;;;1999.90;999.90;;;4.60;99.90;;;;;;5034327;28;20037;-77
2023/03/16 09:01:04;;;;;;;1999.90;999.90;;;4.70;99.90;;;;;;5033909;28;20078;-77
2023/03/16 09:03:34;;;;;;;1999.90;999.90;;;4.70;99.90;;;;;;5034245;28;20033;-77
2023/03/16 09:06:01;;;;;;;1999.90;999.90;;;4.90;99.90;;;;;;5033472;28;20041;-77
2023/03/16 09:08:28;;;;;;;1999.90;999.90;;;5.10;99.90;;;;;;5032943;28;20033;-77
2023/03/16 09:11:02;;;;;;;1999.90;999.90;;;5.30;99.90;;;;;;5032508;28;20057;-77
2023/03/16 09:13:28;;;;;;;1999.90;999.90;;;5.50;99.90;;;;;;5033845;28;20504;-77
2023/03/16 09:15:54;;;;;;;1999.90;999.90;;;5.60;99.90;;;;;;5033401;28;20037;-77
2023/03/16 09:18:20;;;;;;;1999.90;999.90;;;5.80;99.90;;;;;;5034026;28;20397;-76
2023/03/16 09:20:46;;;;;;;1999.90;999.90;;;6.00;99.90;;;;;;5032552;28;20516;-76
2023/03/16 09:23:13;;;;;;;1999.90;999.90;;;6.30;99.90;;;;;;5033885;28;20117;-77
2023/03/16 09:25:38;;;;;;;1999.90;999.90;;;6.40;99.90;;;;;;5031901;28;20045;-77
2023/03/16 09:28:04;;;;;;;1999.90;999.90;;;6.70;99.90;;;;;;5032312;28;20056;-77
2023/03/16 09:30:31;;;;;;;1999.90;999.90;;;6.90;99.90;;;;;;5033731;28;20041;-77
2023/03/16 09:32:57;;;;;;;1999.90;999.90;;;7.20;99.90;;;;;;5014266;28;20046;-76
2023/03/16 09:35:22;;;;;;;1999.90;999.90;;;7.30;99.90;;;;;;5025785;28;20041;-76
2023/03/16 09:37:48;;;;;;;1999.90;999.90;;;7.40;99.90;;;;;;5032990;28;20030;-78
2023/03/16 09:40:30;;;;;;;1999.90;999.90;;;7.60;99.90;;;;;;5036052;28;20129;-77
2023/03/16 09:43:36;;;;;;;1999.90;999.90;;;7.80;99.90;;;;;;5032940;28;20045;-77
2023/03/16 09:46:44;;;;;;;1999.90;999.90;;;8.00;99.90;;;;;;5036943;28;20026;-77
2023/03/16 09:49:36;;;;;;;;;;;;;;;;;;;;;
2023/03/16 09:52:37;;;;;;;1999.90;999.90;;;8.00;99.90;;;;;;5035762;28;40500;-77
2023/03/16 09:55:36;;;;;;;1999.90;999.90;;;8.00;99.90;;;;;;5036712;28;20037;-77
2023/03/16 09:58:35;;;;;;;1999.90;999.90;;;8.00;99.90;;;;;;5037251;28;20033;-77
2023/03/16 10:01:20;;;;;;;1999.90;999.90;;;7.90;99.90;;;;;;5036743;28;20038;-77
2023/03/16 10:03:49;;;;;;;1999.90;999.90;;;7.90;99.90;;;;;;5032029;28;20500;-78
2023/03/16 10:06:15;;;;;;;1999.90;999.90;;;7.90;99.90;;;;;;5017406;28;20042;-77
2023/03/16 10:09:05;;;;;;;1999.90;999.90;;;8.10;99.90;;;;;;5024918;28;20513;-77
2023/03/16 10:11:41;;;;;;;1999.90;999.90;;;8.20;99.90;;;;;;5036844;28;20093;-77
2023/03/16 10:14:22;;;;;;;1999.90;999.90;;;8.40;99.90;;;;;;5036648;28;20030;-78
2023/03/16 10:17:22;;;;;;;1999.90;999.90;;;8.50;99.90;;;;;;5048293;28;20034;-77
2023/03/16 10:20:19;;;;;;;1999.90;999.90;;;8.70;99.90;;;;;;5017177;28;20225;-77
2023/03/16 10:22:46;;;;;;;1999.90;999.90;;;8.90;99.90;;;;;;5024129;28;20095;-77
2023/03/16 10:25:44;;;;;;;1999.90;999.90;;;8.90;99.90;;;;;;5034790;28;20499;-77
2023/03/16 10:28:18;;;;;;;1999.90;999.90;;;9.00;99.90;;;;;;5036971;28;20080;-77
2023/03/16 10:30:45;;;;;;;1999.90;999.90;;;9.00;99.90;;;;;;5036721;28;20515;-79
2023/03/16 10:33:24;;;;;;;1999.90;999.90;;;9.20;99.90;;;;;;5036801;28;20045;-76
2023/03/16 10:36:14;;;;;;;1999.90;999.90;;;9.30;99.90;;;;;;5036082;28;20042;-77
2023/03/16 10:38:49;;;;;;;1999.90;999.90;;;9.40;99.90;;;;;;5036774;28;20510;-77
2023/03/16 10:41:21;;;;;;;1999.90;999.90;;;9.60;99.90;;;;;;5034903;28;20067;-78
2023/03/16 10:43:50;;;;;;;1999.90;999.90;;;9.70;99.90;;;;;;5033779;28;20038;-75
2023/03/16 10:46:16;;;;;;;1999.90;999.90;;;9.80;99.90;;;;;;5034188;28;20511;-79
2023/03/16 10:48:49;;;;;;;1999.90;999.90;;;10.00;99.90;;;;;;5036363;28;20076;-76
2023/03/16 10:51:16;;;;;;;1999.90;999.90;;;10.10;99.90;;;;;;5035302;28;20041;-75
2023/03/16 10:53:43;;;;;;;1999.90;999.90;;;10.10;99.90;;;;;;5034654;28;20056;-77
2023/03/16 10:56:19;;;;;;;1999.90;999.90;;;10.10;99.90;;;;;;5035869;28;20060;-77
2023/03/16 10:58:45;;;;;;;1999.90;999.90;;;10.30;99.90;;;;;;5036498;28;20038;-76
2023/03/16 11:01:23;;;;;;;1999.90;999.90;;;10.10;99.90;;;;;;5036805;28;20389;-79
2023/03/16 11:03:54;;;;;;;1999.90;999.90;;;10.00;99.90;;;;;;5037371;28;20045;-79
2023/03/16 11:06:31;;;;;;;1999.90;999.90;;;10.10;99.90;;;;;;5035783;28;20499;-76
2023/03/16 11:09:13;;;;;;;1999.90;999.90;;;10.20;99.90;;;;;;5035906;28;20101;-75
2023/03/16 11:11:45;;;;;;;1999.90;999.90;;;10.40;99.90;;;;;;5036328;28;20057;-77
2023/03/16 11:14:14;;;;;;;1999.90;999.90;;;10.40;99.90;;;;;;5035866;28;20030;-75
2023/03/16 11:16:49;;;;;;;1999.90;999.90;;;10.30;99.90;;;;;;5034597;28;20041;-77
2023/03/16 11:19:34;;;;;;;1999.90;999.90;;;10.40;99.90;;;;;;5036129;28;20476;-76
2023/03/16 11:22:07;;;;;;;1999.90;999.90;;;10.60;99.90;;;;;;5036098;28;20029;-78
2023/03/16 11:24:50;;;;;;;1999.90;999.90;;;10.80;99.90;;;;;;5035796;28;20038;-79
2023/03/16 11:27:50;;;;;;;1999.90;999.90;;;11.10;99.90;;;;;;5034131;28;20034;-77
2023/03/16 11:30:29;;;;;;;1999.90;999.90;;;11.00;99.90;;;;;;5037218;28;20124;-77
2023/03/16 11:32:56;;;;;;;1999.90;999.90;;;11.10;99.90;;;;;;5035828;28;20025;-78
2023/03/16 11:36:00;;;;;;;1999.90;999.90;;;11.30;99.90;;;;;;5034608;28;20038;-77
2023/03/16 11:39:06;;;;;;;1999.90;999.90;;;11.30;99.90;;;;;;5035610;28;20519;-78
2023/03/16 11:42:02;;;;;;;1999.90;999.90;;;11.30;99.90;;;;;;5035849;28;20056;-78
2023/03/16 11:44:34;;;;;;;1999.90;999.90;;;11.30;99.90;;;;;;5036230;28;20029;-78
2023/03/16 11:47:35;;;;;;;1999.90;999.90;;;11.40;99.00;;;;;;5035458;28;20081;-81
2023/03/16 11:50:33;;;;;;;1999.90;999.90;;;11.60;99.20;;;;;;5069682;28;20042;-81
2023/03/16 11:53:25;;;;;;;1999.90;999.90;;;11.40;98.60;;;;;;5034913;28;20026;-77
2023/03/16 11:56:08;;;;;;;1999.90;999.90;;;11.50;99.80;;;;;;5033140;28;20061;-77
2023/03/16 11:58:53;;;;;;;1999.90;999.90;;;11.80;99.50;;;;;;5033652;28;20041;-77
2023/03/16 12:01:50;;;;;;;1999.90;999.90;;;12.10;98.70;;;;;;5035242;28;20041;-77
2023/03/16 12:04:46;;;;;;;1999.90;999.90;;;11.90;97.10;;;;;;5035027;28;20036;-78
2023/03/16 12:07:19;;;;;;;1999.90;999.90;;;11.90;96.90;;;;;;5035098;28;20042;-77
2023/03/16 12:10:02;;;;;;;1999.90;999.90;;;12.30;96.50;;;;;;5035812;28;20506;-78
2023/03/16 12:12:30;;;;;;;1999.90;999.90;;;12.50;95.50;;;;;;5036074;28;20484;-77
2023/03/16 12:15:15;;;;;;;1999.90;999.90;;;12.50;94.10;;;;;;5035213;28;20030;-77
2023/03/16 12:17:42;;;;;;;1999.90;999.90;;;12.60;94.60;;;;;;5033484;28;20034;-77